Latest Coastal Weather Observations for Maningrida Airport

IDD60701

Issued at 10:51 pm CST Sunday 21 December 2014 (issued every 10 minutes, with the page automatically refreshed every 10 minutes)

About coastal observations | Map of coastal stations | Coastal observations for NT | Marine services | Other Formats
Station Details ID: 014405 Name: MANINGRIDA AIRPORT Lat: -12.06 Lon: 134.23 Height: 28.1 m
Data from the previous 72 hours. | See also: Recent months at Maningrida Airport
Date/Time
CST
Temp

°C
Wind Pressure Rain
since 9am
mm
Weather Cloud Vis
km
Sea
Height
m
Swell
Dir
 
Speed
knots
Gust
knots
hPa Trend Height
m
Period
s
Dir
21/10:30pm 29.5 NNW 3 5 1007.5 - 0.0 - - 10 - - - -
21/10:00pm 29.6 N 4 6 1007.1 - 0.0 - - 10 - - - -
21/09:30pm 29.6 NNE 3 4 1007.0 - 0.0 - - 10 - - - -
21/09:00pm 30.0 N 4 5 1006.9 - 0.0 - - 10 - - - -
21/08:30pm 30.2 N 5 7 1006.3 - 0.0 - - 10 - - - -
21/08:00pm 30.4 N 5 8 1005.9 - 0.0 - - 10 - - - -
21/07:30pm 30.5 N 6 7 1005.3 - 0.0 - - 10 - - - -
21/07:00pm 30.5 N 7 9 1004.9 - 0.0 - - 10 - - - -
21/06:30pm 31.0 N 7 11 1004.7 - 0.0 - - 10 - - - -
21/06:00pm 31.8 N 9 12 1004.5 - 0.0 - - 10 - - - -
21/05:30pm 32.1 N 10 14 1004.5 - 0.0 - - 10 - - - -
21/05:00pm 32.4 N 12 15 1004.5 - 0.0 - - 10 - - - -
21/04:30pm 32.6 N 11 15 1004.5 - 0.0 - - 10 - - - -
21/04:00pm 32.9 N 12 16 1004.7 - 0.0 - - 10 - - - -
21/03:30pm 33.4 N 11 16 1005.0 - 0.0 - - 10 - - - -
21/03:00pm 33.4 N 10 13 1005.4 - 0.0 - - 10 - - - -
21/02:30pm 34.1 N 10 13 1006.0 - 0.0 - - 10 - - - -
21/02:00pm 33.9 N 10 12 1006.5 - 0.0 - - 10 - - - -
21/01:30pm 33.2 N 10 13 1007.0 - 0.0 - - 10 - - - -
21/01:00pm 33.3 N 11 14 1007.5 - 0.0 - - 10 - - - -
21/12:30pm 33.1 N 12 15 1007.9 - 0.0 - - 10 - - - -
21/12:00pm 33.2 N 10 15 1008.4 - 0.0 - - 10 - - - -
21/11:30am 32.4 N 10 14 1008.9 - 0.0 - - 10 - - - -
21/11:00am 32.8 N 9 12 1009.3 - 0.0 - - 10 - - - -
21/10:30am 32.6 NNW 9 11 1009.5 - 0.0 - - 10 - - - -
21/10:00am 32.9 NNW 9 12 1009.7 - 0.0 - - 10 - - - -
21/09:30am 32.0 NNW 7 11 1009.6 - 0.0 - - 10 - - - -
21/09:00am 31.6 WNW 5 7 1009.6 - 0.0 - Mostly clear 10 - - - -
21/08:30am 31.2 NW 5 8 1009.5 - 0.0 - - 10 - - - -
21/08:00am 31.0 W 4 6 1009.1 - 0.0 - - 10 - - - -
21/07:30am 30.6 W 4 5 1008.8 - 0.0 - - 10 - - - -
21/07:00am 29.4 W 3 5 1008.5 - 0.0 - Partly cloudy 10 - - - -
21/06:30am 28.9 WSW 1 4 1008.0 - 0.0 - Partly cloudy 10 - - - -
21/06:00am 28.6 SSE 1 3 1007.5 - 0.0 - Cloudy 10 - - - -
21/05:30am 28.6 N 4 5 1007.2 - 0.0 - Partly cloudy 10 - - - -
21/05:00am 29.8 N 5 7 1007.1 - 0.0 - Partly cloudy 10 - - - -
21/04:30am 29.8 NNW 7 8 1006.9 - 0.0 - Partly cloudy 10 - - - -
21/04:00am 30.0 N 6 8 1006.6 - 0.0 - Partly cloudy 10 - - - -
21/03:30am 29.9 N 7 10 1006.6 - 0.0 - Partly cloudy 10 - - - -
21/03:00am 29.8 N 8 9 1006.9 - 0.0 - Mostly clear 10 - - - -
21/02:30am 30.0 N 7 10 1007.2 - 0.0 - Partly cloudy 10 - - - -
21/02:00am 30.2 N 6 8 1007.5 - 0.0 - Partly cloudy 10 - - - -
21/01:30am 30.1 NNW 6 9 1007.7 - 0.0 - Partly cloudy 10 - - - -
21/01:00am 30.2 NNW 5 7 1008.0 - 0.0 - Partly cloudy 10 - - - -
21/12:30am 30.1 NW 5 7 1008.3 - 0.0 - Partly cloudy 10 - - - -
21/12:00am 30.4 NNW 7 9 1008.4 - 0.0 - Mostly clear 10 - - - -
 
Date/Time
CST
Temp

°C
Wind Pressure Rain
since 9am
mm
Weather Cloud Vis
km
Sea
Height
m
Swell
Dir
 
Speed
knots
Gust
knots
hPa Trend Height
m
Period
s
Dir
20/11:30pm 30.4 NNW 7 9 1008.2 - 0.0 - - 10 - - - -
20/11:00pm 30.4 NNW 7 9 1008.0 - 0.0 - - 10 - - - -
20/10:30pm 30.5 N 6 8 1008.0 - 0.0 - - 10 - - - -
20/10:00pm 30.6 NNW 6 8 1007.8 - 0.0 - - 10 - - - -
20/09:30pm 30.6 N 6 9 1007.3 - 0.0 - - 10 - - - -
20/09:00pm 30.7 NNW 8 10 1006.9 - 0.0 - - 10 - - - -
20/08:30pm 30.8 N 8 9 1006.8 - 0.0 - - 10 - - - -
20/08:00pm 30.9 N 7 11 1006.5 - 0.0 - - 10 - - - -
20/07:30pm 30.9 N 10 13 1005.9 - 0.0 - - 10 - - - -
20/07:00pm 31.0 N 9 13 1005.5 - 0.0 - - 10 - - - -
20/06:30pm 31.6 N 10 14 1004.9 - 0.0 - - 10 - - - -
20/06:00pm 31.9 N 12 15 1004.7 - 0.0 - - 10 - - - -
20/05:30pm 32.3 N 11 15 1004.9 - 0.0 - - 10 - - - -
20/05:00pm 32.7 N 11 14 1004.7 - 0.0 - - 10 - - - -
20/04:30pm 33.3 N 12 17 1004.6 - 0.0 - - 10 - - - -
20/04:00pm 33.5 N 13 17 1004.9 - 0.0 - Partly cloudy 10 - - - -
20/03:30pm 33.4 N 11 15 1004.9 - 0.0 - - 10 - - - -
20/03:00pm 33.3 N 14 19 1005.0 - 0.0 - Mostly clear 10 - - - -
20/02:30pm 33.1 N 13 19 1005.4 - 0.0 - - 10 - - - -
20/02:00pm 34.2 N 12 15 1005.8 - 0.0 - - 10 - - - -
20/01:30pm 34.0 N 12 16 1006.4 - 0.0 - - 10 - - - -
20/01:00pm 33.5 NNW 12 15 1006.8 - 0.0 - - 10 - - - -
20/12:30pm 33.2 N 12 14 1007.3 - 0.0 - - 10 - - - -
20/12:00pm 33.9 NNW 8 12 1007.8 - 0.0 - - 10 - - - -
20/11:30am 33.6 NNW 8 12 1008.2 - 0.0 - - 10 - - - -
20/11:00am 33.2 WNW 6 9 1008.7 - 0.0 - - 10 - - - -
20/10:30am 32.4 NNW 7 11 1009.2 - 0.0 - - 10 - - - -
20/10:00am 32.8 WNW 7 9 1009.5 - 0.0 - Partly cloudy 10 - - - -
20/09:30am 31.7 SW 5 7 1009.9 - 0.0 - Partly cloudy 10 - - - -
20/09:00am 31.1 SW 5 8 1009.9 - 0.0 - Mostly cloudy 10 - - - -
20/08:30am 31.0 SW 5 8 1010.0 - 0.0 - - 10 - - - -
20/08:00am 30.5 SW 4 6 1009.9 - 0.0 - - 10 - - - -
20/07:30am 29.5 SSW 4 5 1009.7 - 0.0 - - 10 - - - -
20/07:00am 28.3 SSW 4 5 1009.2 - 0.0 - - 10 - - - -
20/06:30am 27.2 SW 3 4 1008.8 - 0.0 - - 10 - - - -
20/06:00am 26.9 SW 3 4 1008.5 - 0.0 - - 10 - - - -
20/05:30am 27.3 SW 3 5 1008.0 - 0.0 - Partly cloudy 10 - - - -
20/05:00am 27.3 WSW 3 4 1007.6 - 0.0 - Partly cloudy 10 - - - -
20/04:30am 27.7 W 2 3 1007.3 - 0.0 - Partly cloudy 10 - - - -
20/04:00am 28.7 W 2 4 1007.4 - 0.0 - Partly cloudy 10 - - - -
20/03:30am 29.8 NNW 5 7 1007.6 - 0.0 - Partly cloudy 10 - - - -
20/03:00am 29.8 N 7 10 1007.8 - 0.0 - Mostly cloudy 10 - - - -
20/02:30am 29.8 N 6 7 1007.8 - 0.0 - Partly cloudy 10 - - - -
20/02:00am 29.9 N 7 9 1008.1 - 0.0 - Partly cloudy 10 - - - -
20/01:30am 29.9 N 7 11 1008.3 - 0.0 - Partly cloudy 10 - - - -
20/01:00am 30.0 N 7 9 1008.7 - 0.0 - Partly cloudy 10 - - - -
20/12:30am 29.9 N 6 10 1009.0 - 0.0 - - 10 - - - -
20/12:00am 29.6 NNE 4 5 1009.8 - 0.0 - - 10 - - - -
 
Date/Time
CST
Temp

°C
Wind Pressure Rain
since 9am
mm
Weather Cloud Vis
km
Sea
Height
m
Swell
Dir
 
Speed
knots
Gust
knots
hPa Trend Height
m
Period
s
Dir
19/11:30pm 29.8 NNE 3 4 1010.0 - 0.0 - - 10 - - - -
19/11:00pm 30.0 NE 5 7 1010.1 - 0.0 - - 10 - - - -
19/10:30pm 30.2 NNE 5 7 1010.1 - 0.0 - - 10 - - - -
19/10:00pm 30.4 N 7 9 1009.6 - 0.0 - - 10 - - - -
19/09:30pm 30.5 N 8 10 1009.4 - 0.0 - - 10 - - - -
19/09:00pm 30.7 N 8 11 1009.1 - 0.0 - - 10 - - - -
19/08:30pm 30.7 N 9 11 1008.5 - 0.0 - - 10 - - - -
19/08:00pm 30.9 N 8 11 1008.2 - 0.0 - - 10 - - - -
19/07:30pm 30.9 N 9 14 1007.7 - 0.0 - - 10 - - - -
19/07:00pm 31.0 N 9 13 1006.9 - 0.0 - - 10 - - - -
19/06:30pm 31.5 N 8 10 1006.4 - 0.0 - - 10 - - - -
19/06:00pm 31.8 N 8 10 1006.4 - 0.0 - - 10 - - - -
19/05:30pm 32.1 N 9 12 1006.2 - 0.0 - - 10 - - - -
19/05:00pm 32.2 N 10 13 1006.1 - 0.0 - - 10 - - - -
19/04:30pm 32.5 N 11 14 1006.2 - 0.0 - - 10 - - - -
19/04:00pm 33.1 N 11 15 1006.2 - 0.0 - - 10 - - - -
19/03:30pm 32.8 N 12 16 1006.5 - 0.0 - - 10 - - - -
19/03:00pm 33.8 N 12 15 1006.8 - 0.0 - - 10 - - - -
19/02:30pm 32.7 N 11 14 1007.4 - 0.0 - - 10 - - - -
19/02:00pm 33.5 N 11 14 1007.8 - 0.0 - - 10 - - - -
19/01:30pm 34.2 N 11 15 1008.2 - 0.0 - - 10 - - - -
19/01:00pm 34.0 N 11 15 1008.7 - 0.0 - - 10 - - - -
19/12:30pm 33.3 N 12 15 1008.9 - 0.0 - - 10 - - - -
19/12:00pm 33.5 N 11 15 1009.3 - 0.0 - - 10 - - - -
19/11:30am 33.9 N 10 13 1009.7 - 0.0 - - 10 - - - -
19/11:00am 33.8 NNW 9 12 1010.0 - 0.0 - - 10 - - - -
19/10:30am 33.3 NW 5 11 1010.1 - 0.0 - Partly cloudy 10 - - - -
19/10:00am 33.0 WNW 5 8 1010.5 - 0.0 - - 10 - - - -
19/09:30am 32.3 NW 6 10 1010.4 - 0.0 - - 10 - - - -
19/09:00am 31.6 NW 6 9 1010.5 - 0.0 - Mostly clear 10 - - - -
19/08:30am 31.2 NW 6 8 1010.5 - 0.0 - Partly cloudy 10 - - - -
19/08:00am 30.9 NW 7 8 1010.2 - 0.0 - - 10 - - - -
19/07:30am 30.7 NW 5 7 1010.2 - 0.0 - - 10 - - - -
19/07:00am 29.4 W 3 4 1010.1 - 0.0 - - 10 - - - -
19/06:30am 27.8 W 2 3 1009.7 - 0.0 - - 10 - - - -
19/06:00am 27.7 WNW 2 4 1009.3 - 0.0 - - 10 - - - -
19/05:30am 28.3 WNW 3 4 1009.1 - 0.0 - - 10 - - - -
19/05:00am 28.9 NW 4 7 1008.8 - 0.0 - - 10 - - - -
19/04:30am 28.9 NW 4 5 1008.8 - 0.0 - - 10 - - - -
19/04:00am 28.2 NW 3 4 1008.6 - 0.0 - Partly cloudy 10 - - - -
19/03:30am 28.4 WNW 2 5 1008.3 - 0.0 - - 10 - - - -
19/03:00am 28.2 W 3 5 1008.1 - 0.0 - - 10 - - - -
19/02:30am 28.5 W 2 3 1008.0 - 0.0 - Partly cloudy 10 - - - -
19/02:00am 29.5 NW 4 6 1008.1 - 0.0 - Partly cloudy 10 - - - -
19/01:30am 29.7 NW 6 7 1008.4 - 0.0 - - 10 - - - -
19/01:00am 29.7 NW 6 8 1008.8 - 0.0 - - 10 - - - -
19/12:30am 29.7 NW 5 8 1009.1 - 0.0 - Partly cloudy 10 - - - -
19/12:00am 29.5 WNW 4 6 1009.3 - 0.0 - - 10 - - - -
 
Date/Time
CST
Temp

°C
Wind Pressure Rain
since 9am
mm
Weather Cloud Vis
km
Sea
Height
m
Swell
Dir
 
Speed
knots
Gust
knots
hPa Trend Height
m
Period
s
Dir
18/11:30pm 29.7 WNW 4 6 1009.8 - 0.0 - - 10 - - - -
18/11:00pm 29.9 WNW 5 7 1009.6 - 0.0 - - 10 - - - -

Other Formats:

Comma delimited format used in spreadsheet applications
http://www.bom.gov.au/fwo/IDD60701/IDD60701.95142.axf

JavaScript Object Notation format (JSON) in row-major order
http://www.bom.gov.au/fwo/IDD60701/IDD60701.95142.json